Time,TemperatureF,DewpointF,PressureIn,WindDirection,WindDirectionDegrees,WindSpeedMPH,WindSpeedGustMPH,Humidity,HourlyPrecipIn,Conditions,Clouds,dailyrainin,SolarRadiationWatts/m^2,SoftwareType,DateUTC
2013-05-25 00:00:00,44.5,35.0,30.03,NNE,26,0.0,0.0,69,0.00,,,0.00,0,Wunderground v.1.15,2013-05-25 07:00:00,
2013-05-25 00:09:00,43.9,35.1,30.02,NNE,26,0.0,0.0,71,0.00,,,0.00,0,Wunderground v.1.15,2013-05-25 07:09:00,
2013-05-25 00:19:00,44.1,35.6,30.02,NNE,26,0.0,0.0,72,0.00,,,0.00,0,Wunderground v.1.15,2013-05-25 07:19:00,
2013-05-25 00:24:00,44.0,35.9,30.02,NNW,337,0.0,0.0,73,0.00,,,0.00,0,Wunderground v.1.15,2013-05-25 07:24:00,
2013-05-25 00:29:00,43.8,35.4,30.02,NNW,337,0.0,0.0,72,0.00,,,0.00,0,Wunderground v.1.15,2013-05-25 07:29:00,
2013-05-25 00:34:00,43.6,35.5,30.02,NNW,337,0.0,0.0,73,0.00,,,0.00,0,Wunderground v.1.15,2013-05-25 07:34:00,
2013-05-25 00:39:00,43.3,35.6,30.02,NNW,337,0.0,0.0,74,0.00,,,0.00,0,Wunderground v.1.15,2013-05-25 07:39:00,
2013-05-25 00:44:00,43.2,35.5,30.02,NNW,337,0.0,0.0,74,0.00,,,0.00,0,Wunderground v.1.15,2013-05-25 07:44:00,
2013-05-25 00:54:00,43.2,35.8,30.02,NNW,337,0.0,0.0,75,0.00,,,0.00,0,Wunderground v.1.15,2013-05-25 07:54:00,
2013-05-25 01:00:00,43.0,34.6,30.02,NNW,338,0.0,0.0,72,0.00,,,0.00,0,Wunderground v.1.15,2013-05-25 08:00:00,
2013-05-25 01:09:00,41.4,33.4,30.02,NNW,338,0.0,0.0,73,0.00,,,0.00,0,Wunderground v.1.15,2013-05-25 08:09:00,
2013-05-25 01:14:00,40.6,34.0,30.02,NNW,338,0.0,0.0,77,0.00,,,0.00,0,Wunderground v.1.15,2013-05-25 08:14:00,
2013-05-25 01:24:00,39.6,33.0,30.02,NNW,338,0.0,0.0,77,0.00,,,0.00,0,Wunderground v.1.15,2013-05-25 08:24:00,
2013-05-25 01:29:00,39.3,33.6,30.02,NNW,338,0.0,0.0,80,0.00,,,0.00,0,Wunderground v.1.15,2013-05-25 08:29:00,
2013-05-25 01:34:00,39.3,34.0,30.02,NNW,338,0.0,0.0,81,0.00,,,0.00,0,Wunderground v.1.15,2013-05-25 08:34:00,
2013-05-25 01:39:00,39.4,33.7,30.02,NNW,338,0.0,0.0,80,0.00,,,0.00,0,Wunderground v.1.15,2013-05-25 08:39:00,
2013-05-25 01:44:00,39.4,33.1,30.02,NNW,338,0.0,0.0,78,0.00,,,0.00,0,Wunderground v.1.15,2013-05-25 08:44:00,
2013-05-25 01:49:00,39.2,33.2,30.02,NNW,338,0.0,0.0,79,0.00,,,0.00,0,Wunderground v.1.15,2013-05-25 08:49:00,
2013-05-25 01:59:00,38.8,33.5,30.02,NNW,338,0.0,0.0,81,0.00,,,0.00,0,Wunderground v.1.15,2013-05-25 08:59:00,
2013-05-25 02:09:00,38.5,34.1,30.02,NNW,338,0.0,0.0,84,0.00,,,0.00,0,Wunderground v.1.15,2013-05-25 09:09:00,
2013-05-25 02:14:00,38.4,33.1,30.02,NNW,338,0.0,0.0,81,0.00,,,0.00,0,Wunderground v.1.15,2013-05-25 09:14:00,
2013-05-25 02:19:00,38.4,33.7,30.02,NNW,338,0.0,0.0,83,0.00,,,0.00,0,Wunderground v.1.15,2013-05-25 09:19:00,
2013-05-25 02:29:00,38.0,32.7,30.02,NNW,338,0.0,0.0,81,0.00,,,0.00,0,Wunderground v.1.15,2013-05-25 09:29:00,
2013-05-25 02:34:00,37.6,32.3,30.02,NNW,338,0.0,0.0,81,0.00,,,0.00,0,Wunderground v.1.15,2013-05-25 09:34:00,
2013-05-25 02:39:00,36.8,31.8,30.02,NNW,338,0.0,0.0,82,0.00,,,0.00,0,Wunderground v.1.15,2013-05-25 09:39:00,
2013-05-25 02:44:00,36.4,31.7,30.02,NNW,338,0.0,0.0,83,0.00,,,0.00,0,Wunderground v.1.15,2013-05-25 09:44:00,
2013-05-25 02:49:00,36.1,31.4,30.02,NNW,338,0.0,0.0,83,0.00,,,0.00,0,Wunderground v.1.15,2013-05-25 09:49:00,
2013-05-25 02:54:00,35.9,31.5,30.02,NNW,335,0.0,0.0,84,0.00,,,0.00,0,Wunderground v.1.15,2013-05-25 09:54:00,
2013-05-25 02:59:00,36.2,31.8,30.02,NNW,335,0.0,0.0,84,0.00,,,0.00,0,Wunderground v.1.15,2013-05-25 09:59:00,
2013-05-25 03:09:00,36.3,31.6,30.02,NNW,335,0.0,0.0,83,0.00,,,0.00,0,Wunderground v.1.15,2013-05-25 10:09:00,
2013-05-25 03:14:00,36.4,32.3,30.02,NNW,335,0.0,0.0,85,0.00,,,0.00,0,Wunderground v.1.15,2013-05-25 10:14:00,
2013-05-25 03:19:00,36.7,32.3,30.02,NNW,335,0.0,0.0,84,0.00,,,0.00,0,Wunderground v.1.15,2013-05-25 10:19:00,
2013-05-25 03:24:00,36.7,31.7,30.02,NNW,335,0.0,0.0,82,0.00,,,0.00,0,Wunderground v.1.15,2013-05-25 10:24:00,
2013-05-25 03:34:00,36.1,31.7,30.02,NNW,335,0.0,0.0,84,0.00,,,0.00,0,Wunderground v.1.15,2013-05-25 10:34:00,
2013-05-25 03:39:00,35.9,31.5,30.02,NNW,335,0.0,0.0,84,0.00,,,0.00,0,Wunderground v.1.15,2013-05-25 10:39:00,
2013-05-25 03:44:00,35.5,31.1,30.02,NW,318,0.0,0.0,84,0.00,,,0.00,0,Wunderground v.1.15,2013-05-25 10:44:00,
2013-05-25 03:49:00,35.3,30.9,30.02,NW,318,0.0,0.0,84,0.00,,,0.00,0,Wunderground v.1.15,2013-05-25 10:49:00,
2013-05-25 03:54:00,35.0,30.4,30.02,NW,318,0.0,0.0,83,0.00,,,0.00,0,Wunderground v.1.15,2013-05-25 10:54:00,
2013-05-25 03:59:00,34.7,30.9,30.02,NW,318,0.0,0.0,86,0.00,,,0.00,0,Wunderground v.1.15,2013-05-25 10:59:00,
2013-05-25 04:09:00,34.1,30.1,30.02,NW,318,0.0,0.0,85,0.00,,,0.00,0,Wunderground v.1.15,2013-05-25 11:09:00,
2013-05-25 04:14:00,33.8,30.1,30.03,NW,318,0.0,0.0,86,0.00,,,0.00,0,Wunderground v.1.15,2013-05-25 11:14:00,
2013-05-25 04:19:00,33.7,30.2,30.02,NW,318,0.0,0.0,87,0.00,,,0.00,0,Wunderground v.1.15,2013-05-25 11:19:00,
2013-05-25 04:24:00,33.7,30.2,30.03,NW,318,0.0,0.0,87,0.00,,,0.00,0,Wunderground v.1.15,2013-05-25 11:24:00,
2013-05-25 04:29:00,33.5,30.0,30.03,NW,318,0.0,0.0,87,0.00,,,0.00,0,Wunderground v.1.15,2013-05-25 11:29:00,
2013-05-25 04:34:00,33.4,29.9,30.02,NW,318,0.0,0.0,87,0.00,,,0.00,0,Wunderground v.1.15,2013-05-25 11:34:00,
2013-05-25 04:39:00,33.3,29.8,30.03,NW,318,0.0,0.0,87,0.00,,,0.00,0,Wunderground v.1.15,2013-05-25 11:39:00,
2013-05-25 04:44:00,32.8,29.1,30.02,WNW,296,0.0,0.0,86,0.00,,,0.00,0,Wunderground v.1.15,2013-05-25 11:44:00,
2013-05-25 04:49:00,32.3,28.6,30.02,WNW,287,0.0,0.0,86,0.00,,,0.00,0,Wunderground v.1.15,2013-05-25 11:49:00,
2013-05-25 04:54:00,31.9,28.5,30.02,WNW,286,0.0,0.0,87,0.00,,,0.00,0,Wunderground v.1.15,2013-05-25 11:54:00,
2013-05-25 05:00:00,31.7,28.0,30.03,WNW,286,0.0,0.0,86,0.00,,,0.00,0,Wunderground v.1.15,2013-05-25 12:00:00,
2013-05-25 05:09:00,31.8,28.9,30.03,WNW,286,0.0,0.0,89,0.00,,,0.00,0,Wunderground v.1.15,2013-05-25 12:09:00,
2013-05-25 05:14:00,31.9,29.0,30.03,WNW,286,0.0,0.0,89,0.00,,,0.00,0,Wunderground v.1.15,2013-05-25 12:14:00,
2013-05-25 05:19:00,31.9,29.0,30.03,WNW,285,0.0,0.0,89,0.00,,,0.00,0,Wunderground v.1.15,2013-05-25 12:19:00,
2013-05-25 05:24:00,31.9,29.0,30.03,WNW,285,0.0,0.0,89,0.00,,,0.00,0,Wunderground v.1.15,2013-05-25 12:24:00,
2013-05-25 05:29:00,31.9,29.0,30.03,WNW,285,0.0,0.0,89,0.00,,,0.00,5,Wunderground v.1.15,2013-05-25 12:29:00,
2013-05-25 05:34:00,31.9,29.0,30.03,WNW,285,0.0,0.0,89,0.00,,,0.00,7,Wunderground v.1.15,2013-05-25 12:34:00,
2013-05-25 05:44:00,31.9,28.8,30.03,WSW,248,0.0,0.0,88,0.00,,,0.00,12,Wunderground v.1.15,2013-05-25 12:44:00,
2013-05-25 05:49:00,31.8,28.7,30.03,SW,225,0.0,0.0,88,0.00,,,0.00,14,Wunderground v.1.15,2013-05-25 12:49:00,
2013-05-25 05:54:00,31.8,28.9,30.03,SW,225,0.0,0.0,89,0.00,,,0.00,19,Wunderground v.1.15,2013-05-25 12:54:00,
2013-05-25 06:00:00,32.1,29.2,30.03,SW,225,0.0,0.0,89,0.00,,,0.00,28,Wunderground v.1.15,2013-05-25 13:00:00,
2013-05-25 06:09:00,32.9,30.0,30.03,SW,225,0.0,0.0,89,0.00,,,0.00,47,Wunderground v.1.15,2013-05-25 13:09:00,
2013-05-25 06:14:00,33.4,30.5,30.03,SW,225,0.0,0.0,89,0.00,,,0.00,58,Wunderground v.1.15,2013-05-25 13:14:00,
2013-05-25 06:19:00,34.0,31.1,30.03,SW,225,0.0,0.0,89,0.00,,,0.00,69,Wunderground v.1.15,2013-05-25 13:19:00,
2013-05-25 06:24:00,34.7,31.5,30.03,SW,225,0.0,0.0,88,0.00,,,0.00,77,Wunderground v.1.15,2013-05-25 13:24:00,
2013-05-25 06:29:00,35.7,32.2,30.03,SW,225,0.0,0.0,87,0.00,,,0.00,90,Wunderground v.1.15,2013-05-25 13:29:00,
2013-05-25 06:34:00,36.3,32.2,30.03,SW,225,0.0,0.0,85,0.00,,,0.00,105,Wunderground v.1.15,2013-05-25 13:34:00,
2013-05-25 06:39:00,36.9,32.5,30.04,SW,223,0.0,0.0,84,0.00,,,0.00,120,Wunderground v.1.15,2013-05-25 13:39:00,
2013-05-25 06:49:00,38.4,33.4,30.04,SSW,211,0.0,0.0,82,0.00,,,0.00,153,Wunderground v.1.15,2013-05-25 13:49:00,
2013-05-25 06:54:00,38.9,33.3,30.04,SSW,211,0.0,0.0,80,0.00,,,0.00,167,Wunderground v.1.15,2013-05-25 13:54:00,
2013-05-25 06:59:00,39.5,33.5,30.04,SSW,211,0.0,0.0,79,0.00,,,0.00,188,Wunderground v.1.15,2013-05-25 13:59:00,
2013-05-25 07:09:00,39.5,33.2,30.04,SSW,211,0.0,0.0,78,0.00,,,0.00,223,Wunderground v.1.15,2013-05-25 14:09:00,
2013-05-25 07:19:00,40.2,33.6,30.04,SSW,192,0.0,0.0,77,0.00,,,0.00,255,Wunderground v.1.15,2013-05-25 14:19:00,
2013-05-25 07:24:00,41.0,33.7,30.04,South,188,0.0,0.0,75,0.00,,,0.00,269,Wunderground v.1.15,2013-05-25 14:24:00,
2013-05-25 07:29:00,41.5,33.5,30.04,South,182,0.0,0.0,73,0.00,,,0.00,283,Wunderground v.1.15,2013-05-25 14:29:00,
2013-05-25 07:34:00,42.0,34.0,30.04,South,175,0.0,0.0,73,0.00,,,0.00,299,Wunderground v.1.15,2013-05-25 14:34:00,
2013-05-25 07:39:00,42.5,34.1,30.04,South,184,0.0,0.0,72,0.00,,,0.00,315,Wunderground v.1.15,2013-05-25 14:39:00,
2013-05-25 07:44:00,43.1,34.3,30.04,SE,145,0.0,0.0,71,0.00,,,0.00,329,Wunderground v.1.15,2013-05-25 14:44:00,
2013-05-25 07:54:00,44.2,35.0,30.04,SE,144,0.0,0.0,70,0.00,,,0.00,360,Wunderground v.1.15,2013-05-25 14:54:00,
2013-05-25 07:59:00,45.0,35.1,30.04,SE,142,0.0,0.0,68,0.00,,,0.00,376,Wunderground v.1.15,2013-05-25 14:59:00,
2013-05-25 08:09:00,45.8,35.5,30.03,SSE,151,0.0,0.0,67,0.00,,,0.00,403,Wunderground v.1.15,2013-05-25 15:09:00,
2013-05-25 08:14:00,46.8,35.6,30.03,SSE,155,0.0,0.0,65,0.00,,,0.00,418,Wunderground v.1.15,2013-05-25 15:14:00,
2013-05-25 08:24:00,47.6,35.6,30.03,SSE,159,0.0,0.0,63,0.00,,,0.00,448,Wunderground v.1.15,2013-05-25 15:24:00,
2013-05-25 08:29:00,47.6,35.6,30.03,South,182,0.0,4.0,63,0.00,,,0.00,466,Wunderground v.1.15,2013-05-25 15:29:00,
2013-05-25 08:34:00,47.8,36.2,30.03,South,182,1.0,4.0,64,0.00,,,0.00,478,Wunderground v.1.15,2013-05-25 15:34:00,
2013-05-25 08:39:00,47.9,36.3,30.03,South,187,1.0,1.0,64,0.00,,,0.00,492,Wunderground v.1.15,2013-05-25 15:39:00,
2013-05-25 08:44:00,48.3,36.7,30.03,SE,132,2.0,2.0,64,0.00,,,0.00,508,Wunderground v.1.15,2013-05-25 15:44:00,
2013-05-25 08:49:00,49.1,36.6,30.02,SE,134,1.0,1.0,62,0.00,,,0.00,522,Wunderground v.1.15,2013-05-25 15:49:00,
2013-05-25 08:54:00,49.8,36.5,30.02,ESE,103,0.0,1.0,60,0.00,,,0.00,536,Wunderground v.1.15,2013-05-25 15:54:00,
2013-05-25 09:00:00,50.2,36.8,30.02,SSE,159,0.0,2.0,60,0.00,,,0.00,552,Wunderground v.1.15,2013-05-25 16:00:00,
2013-05-25 09:09:00,51.1,37.3,30.01,SSE,166,0.0,0.0,59,0.00,,,0.00,578,Wunderground v.1.15,2013-05-25 16:09:00,
2013-05-25 09:14:00,51.8,37.0,30.02,SE,126,1.0,1.0,57,0.00,,,0.00,592,Wunderground v.1.15,2013-05-25 16:14:00,
2013-05-25 09:19:00,51.7,36.9,30.01,SSE,165,1.0,1.0,57,0.00,,,0.00,606,Wunderground v.1.15,2013-05-25 16:19:00,
2013-05-25 09:24:00,52.5,37.2,30.01,SSE,148,0.0,1.0,56,0.00,,,0.00,621,Wunderground v.1.15,2013-05-25 16:24:00,
2013-05-25 09:29:00,52.6,36.9,30.01,SE,128,0.0,0.0,55,0.00,,,0.00,633,Wunderground v.1.15,2013-05-25 16:29:00,
2013-05-25 09:34:00,52.6,36.9,30.01,East,101,0.0,0.0,55,0.00,,,0.00,647,Wunderground v.1.15,2013-05-25 16:34:00,
2013-05-25 09:39:00,52.5,36.8,30.01,SE,127,0.0,0.0,55,0.00,,,0.00,661,Wunderground v.1.15,2013-05-25 16:39:00,
2013-05-25 09:44:00,53.7,37.4,30.01,ESE,121,0.0,0.0,54,0.00,,,0.00,675,Wunderground v.1.15,2013-05-25 16:44:00,
2013-05-25 09:49:00,53.6,36.4,30.01,SSW,202,1.0,3.0,52,0.00,,,0.00,663,Wunderground v.1.15,2013-05-25 16:49:00,
2013-05-25 10:00:00,54.0,36.8,30.00,East,97,0.0,2.0,52,0.00,,,0.00,708,Wunderground v.1.15,2013-05-25 17:00:00,
2013-05-25 10:09:00,54.3,36.5,30.00,South,184,1.0,1.0,51,0.00,,,0.00,724,Wunderground v.1.15,2013-05-25 17:09:00,
2013-05-25 10:14:00,54.4,36.6,30.00,SSE,157,0.0,1.0,51,0.00,,,0.00,740,Wunderground v.1.15,2013-05-25 17:14:00,
2013-05-25 10:19:00,54.6,36.3,30.00,East,79,0.0,0.0,50,0.00,,,0.00,752,Wunderground v.1.15,2013-05-25 17:19:00,
2013-05-25 10:24:00,56.1,37.2,30.00,SE,132,0.0,0.0,49,0.00,,,0.00,763,Wunderground v.1.15,2013-05-25 17:24:00,
2013-05-25 10:34:00,56.4,35.9,30.00,SSE,149,1.0,1.0,46,0.00,,,0.00,786,Wunderground v.1.15,2013-05-25 17:34:00,
2013-05-25 10:39:00,56.2,35.1,30.00,SSE,149,0.0,0.0,45,0.00,,,0.00,795,Wunderground v.1.15,2013-05-25 17:39:00,
2013-05-25 10:44:00,56.2,36.2,30.00,North,355,0.0,0.0,47,0.00,,,0.00,798,Wunderground v.1.15,2013-05-25 17:44:00,
2013-05-25 10:49:00,57.0,35.9,29.99,East,80,0.0,0.0,45,0.00,,,0.00,814,Wunderground v.1.15,2013-05-25 17:49:00,
2013-05-25 10:54:00,58.6,36.7,29.99,East,90,0.0,0.0,44,0.00,,,0.00,821,Wunderground v.1.15,2013-05-25 17:54:00,
2013-05-25 11:00:00,59.5,37.0,29.99,East,87,0.0,0.0,43,0.00,,,0.00,830,Wunderground v.1.15,2013-05-25 18:00:00,
2013-05-25 11:09:00,60.0,36.2,29.99,SSW,193,1.0,4.0,41,0.00,,,0.00,849,Wunderground v.1.15,2013-05-25 18:09:00,
2013-05-25 11:14:00,58.9,35.2,29.99,SSW,207,3.0,4.0,41,0.00,,,0.00,856,Wunderground v.1.15,2013-05-25 18:14:00,
2013-05-25 11:19:00,57.6,34.7,29.99,SW,217,2.0,2.0,42,0.00,,,0.00,867,Wunderground v.1.15,2013-05-25 18:19:00,
2013-05-25 11:24:00,57.2,34.9,29.99,WSW,241,0.0,2.0,43,0.00,,,0.00,879,Wunderground v.1.15,2013-05-25 18:24:00,
2013-05-25 11:29:00,57.7,34.7,29.99,SW,226,1.0,1.0,42,0.00,,,0.00,853,Wunderground v.1.15,2013-05-25 18:29:00,
2013-05-25 11:39:00,60.6,36.8,29.98,SSE,167,0.0,0.0,41,0.00,,,0.00,895,Wunderground v.1.15,2013-05-25 18:39:00,
2013-05-25 11:44:00,60.8,35.0,29.98,South,180,0.0,0.0,38,0.00,,,0.00,905,Wunderground v.1.15,2013-05-25 18:44:00,
2013-05-25 11:49:00,61.4,35.5,29.98,SE,140,0.0,0.0,38,0.00,,,0.00,898,Wunderground v.1.15,2013-05-25 18:49:00,
2013-05-25 11:54:00,60.5,36.0,29.98,ESE,113,0.0,0.0,40,0.00,,,0.00,918,Wunderground v.1.15,2013-05-25 18:54:00,
2013-05-25 12:00:00,61.6,35.7,29.98,ENE,76,0.0,0.0,38,0.00,,,0.00,888,Wunderground v.1.15,2013-05-25 19:00:00,
2013-05-25 12:09:00,60.1,34.4,29.97,ENE,59,0.0,0.0,38,0.00,,,0.00,925,Wunderground v.1.15,2013-05-25 19:09:00,
2013-05-25 12:14:00,62.3,35.0,29.97,East,89,0.0,0.0,36,0.00,,,0.00,867,Wunderground v.1.15,2013-05-25 19:14:00,
2013-05-25 12:19:00,63.0,34.9,29.98,SSE,157,0.0,0.0,35,0.00,,,0.00,930,Wunderground v.1.15,2013-05-25 19:19:00,
2013-05-25 12:24:00,63.2,35.1,29.98,SW,221,1.0,7.0,35,0.00,,,0.00,939,Wunderground v.1.15,2013-05-25 19:24:00,
2013-05-25 12:29:00,63.1,35.0,29.97,SE,127,3.0,3.0,35,0.00,,,0.00,940,Wunderground v.1.15,2013-05-25 19:29:00,
2013-05-25 12:34:00,63.1,35.0,29.97,SW,229,2.0,3.0,35,0.00,,,0.00,946,Wunderground v.1.15,2013-05-25 19:34:00,
2013-05-25 12:44:00,62.5,34.5,29.97,SW,225,2.0,2.0,35,0.00,,,0.00,946,Wunderground v.1.15,2013-05-25 19:44:00,
2013-05-25 12:49:00,63.8,34.9,29.97,SW,225,0.0,0.0,34,0.00,,,0.00,958,Wunderground v.1.15,2013-05-25 19:49:00,
2013-05-25 12:54:00,64.1,35.1,29.96,SE,133,0.0,0.0,34,0.00,,,0.00,956,Wunderground v.1.15,2013-05-25 19:54:00,
2013-05-25 12:59:00,63.1,35.0,29.96,West,268,1.0,1.0,35,0.00,,,0.00,972,Wunderground v.1.15,2013-05-25 19:59:00,
2013-05-25 13:09:00,63.5,35.3,29.96,NE,46,2.0,2.0,35,0.00,,,0.00,951,Wunderground v.1.15,2013-05-25 20:09:00,
2013-05-25 13:14:00,63.2,34.3,29.96,NE,55,2.0,2.0,34,0.00,,,0.00,969,Wunderground v.1.15,2013-05-25 20:14:00,
2013-05-25 13:19:00,65.2,34.6,29.96,SSE,154,0.0,5.0,32,0.00,,,0.00,1013,Wunderground v.1.15,2013-05-25 20:19:00,
2013-05-25 13:24:00,65.7,35.8,29.96,East,96,2.0,5.0,33,0.00,,,0.00,1025,Wunderground v.1.15,2013-05-25 20:24:00,
2013-05-25 13:29:00,67.2,35.5,29.96,ENE,73,1.0,4.0,31,0.00,,,0.00,1005,Wunderground v.1.15,2013-05-25 20:29:00,
2013-05-25 13:34:00,65.3,34.7,29.96,NE,44,1.0,4.0,32,0.00,,,0.00,1037,Wunderground v.1.15,2013-05-25 20:34:00,
2013-05-25 13:39:00,64.4,34.6,29.95,NNW,344,2.0,7.0,33,0.00,,,0.00,991,Wunderground v.1.15,2013-05-25 20:39:00,
2013-05-25 13:49:00,63.3,34.4,29.95,ENE,66,5.0,7.0,34,0.00,,,0.00,262,Wunderground v.1.15,2013-05-25 20:49:00,
2013-05-25 13:54:00,63.5,34.6,29.95,ENE,68,3.0,7.0,34,0.00,,,0.00,933,Wunderground v.1.15,2013-05-25 20:54:00,
2013-05-25 13:59:00,65.1,35.3,29.95,North,360,1.0,2.0,33,0.00,,,0.00,944,Wunderground v.1.15,2013-05-25 20:59:00,
2013-05-25 14:09:00,65.4,35.5,29.94,ENE,78,2.0,2.0,33,0.00,,,0.00,988,Wunderground v.1.15,2013-05-25 21:09:00,
2013-05-25 14:14:00,65.5,36.4,29.94,NNW,334,1.0,2.0,34,0.00,,,0.00,935,Wunderground v.1.15,2013-05-25 21:14:00,
2013-05-25 14:19:00,65.7,35.8,29.94,North,360,2.0,3.0,33,0.00,,,0.00,942,Wunderground v.1.15,2013-05-25 21:19:00,
2013-05-25 14:24:00,63.6,35.4,29.94,North,9,3.0,9.0,35,0.00,,,0.00,932,Wunderground v.1.15,2013-05-25 21:24:00,
2013-05-25 14:29:00,64.3,36.0,29.94,North,360,3.0,3.0,35,0.00,,,0.00,837,Wunderground v.1.15,2013-05-25 21:29:00,
2013-05-25 14:34:00,64.1,35.9,29.94,NNW,334,3.0,4.0,35,0.00,,,0.00,719,Wunderground v.1.15,2013-05-25 21:34:00,
2013-05-25 14:39:00,63.8,35.6,29.94,NNW,327,3.0,3.0,35,0.00,,,0.00,712,Wunderground v.1.15,2013-05-25 21:39:00,
2013-05-25 14:49:00,64.0,35.0,29.93,NNW,340,2.0,2.0,34,0.00,,,0.00,786,Wunderground v.1.15,2013-05-25 21:49:00,
2013-05-25 14:54:00,66.2,36.2,29.93,NNW,341,0.0,2.0,33,0.00,,,0.00,684,Wunderground v.1.15,2013-05-25 21:54:00,
2013-05-25 15:00:00,65.1,36.0,29.93,NE,53,0.0,0.0,34,0.00,,,0.00,747,Wunderground v.1.15,2013-05-25 22:00:00,
2013-05-25 15:09:00,65.4,37.0,29.93,North,5,3.0,3.0,35,0.00,,,0.00,754,Wunderground v.1.15,2013-05-25 22:09:00,
2013-05-25 15:14:00,65.1,36.0,29.93,NNW,346,4.0,7.0,34,0.00,,,0.00,459,Wunderground v.1.15,2013-05-25 22:14:00,
2013-05-25 15:24:00,65.3,37.6,29.93,NNE,33,1.0,3.0,36,0.00,,,0.00,724,Wunderground v.1.15,2013-05-25 22:24:00,
2013-05-25 15:29:00,65.9,36.7,29.93,NNE,15,2.0,2.0,34,0.00,,,0.00,663,Wunderground v.1.15,2013-05-25 22:29:00,
2013-05-25 15:34:00,65.8,35.9,29.92,NNE,19,4.0,5.0,33,0.00,,,0.00,638,Wunderground v.1.15,2013-05-25 22:34:00,
2013-05-25 15:39:00,65.7,37.3,29.92,North,349,4.0,7.0,35,0.00,,,0.00,768,Wunderground v.1.15,2013-05-25 22:39:00,
2013-05-25 15:44:00,65.9,37.5,29.92,North,355,6.0,7.0,35,0.00,,,0.00,791,Wunderground v.1.15,2013-05-25 22:44:00,
2013-05-25 15:54:00,65.1,36.0,29.92,NNE,19,5.0,7.0,34,0.00,,,0.00,682,Wunderground v.1.15,2013-05-25 22:54:00,
2013-05-25 16:00:00,65.1,37.5,29.92,North,9,3.0,6.0,36,0.00,,,0.00,803,Wunderground v.1.15,2013-05-25 23:00:00,
2013-05-25 16:09:00,65.6,36.5,29.92,NW,319,4.0,4.0,34,0.00,,,0.00,485,Wunderground v.1.15,2013-05-25 23:09:00,
2013-05-25 16:14:00,64.6,36.3,29.92,WNW,286,3.0,4.0,35,0.00,,,0.00,849,Wunderground v.1.15,2013-05-25 23:14:00,
2013-05-25 16:19:00,65.5,37.1,29.92,NE,42,2.0,2.0,35,0.00,,,0.00,376,Wunderground v.1.15,2013-05-25 23:19:00,
2013-05-25 16:29:00,65.1,36.8,29.92,ENE,61,2.0,2.0,35,0.00,,,0.00,756,Wunderground v.1.15,2013-05-25 23:29:00,
2013-05-25 16:34:00,64.9,37.3,29.92,NE,36,2.0,4.0,36,0.00,,,0.00,443,Wunderground v.1.15,2013-05-25 23:34:00,
2013-05-25 16:39:00,64.9,37.3,29.92,NNE,18,4.0,7.0,36,0.00,,,0.00,306,Wunderground v.1.15,2013-05-25 23:39:00,
2013-05-25 16:44:00,64.1,37.3,29.92,North,360,5.0,7.0,37,0.00,,,0.00,281,Wunderground v.1.15,2013-05-25 23:44:00,
2013-05-25 16:49:00,63.7,36.9,29.92,North,9,4.0,4.0,37,0.00,,,0.00,278,Wunderground v.1.15,2013-05-25 23:49:00,
2013-05-25 16:59:00,64.0,37.9,29.92,NNE,25,2.0,6.0,38,0.00,,,0.00,302,Wunderground v.1.15,2013-05-25 23:59:00,
2013-05-25 17:09:00,63.9,37.8,29.92,NNW,345,4.0,4.0,38,0.00,,,0.00,427,Wunderground v.1.15,2013-05-26 00:09:00,
2013-05-25 17:14:00,64.0,37.9,29.92,NNE,26,4.0,4.0,38,0.00,,,0.00,301,Wunderground v.1.15,2013-05-26 00:14:00,
2013-05-25 17:19:00,64.2,37.4,29.92,NNE,21,4.0,4.0,37,0.00,,,0.00,243,Wunderground v.1.15,2013-05-26 00:19:00,
2013-05-25 17:24:00,64.0,37.9,29.92,NE,45,3.0,4.0,38,0.00,,,0.00,223,Wunderground v.1.15,2013-05-26 00:24:00,
2013-05-25 17:34:00,63.8,38.4,29.91,NE,40,4.0,4.0,39,0.00,,,0.00,276,Wunderground v.1.15,2013-05-26 00:34:00,
2013-05-25 17:39:00,63.9,39.1,29.91,North,360,3.0,8.0,40,0.00,,,0.00,267,Wunderground v.1.15,2013-05-26 00:39:00,
2013-05-25 17:44:00,63.8,39.0,29.91,NNE,16,4.0,8.0,40,0.00,,,0.00,276,Wunderground v.1.15,2013-05-26 00:44:00,
2013-05-25 17:49:00,63.8,39.0,29.91,NNW,337,5.0,5.0,40,0.00,,,0.00,302,Wunderground v.1.15,2013-05-26 00:49:00,
2013-05-25 17:54:00,64.1,39.3,29.91,North,5,4.0,5.0,40,0.00,,,0.00,251,Wunderground v.1.15,2013-05-26 00:54:00,
2013-05-25 17:59:00,63.7,38.9,29.91,North,5,4.0,6.0,40,0.00,,,0.00,334,Wunderground v.1.15,2013-05-26 00:59:00,
2013-05-25 18:09:00,63.4,38.0,29.91,North,355,5.0,5.0,39,0.00,,,0.00,186,Wunderground v.1.15,2013-05-26 01:09:00,
2013-05-25 18:14:00,63.4,38.0,29.91,NNE,22,4.0,6.0,39,0.00,,,0.00,230,Wunderground v.1.15,2013-05-26 01:14:00,
2013-05-25 18:19:00,63.1,38.4,29.91,North,360,4.0,4.0,40,0.00,,,0.00,158,Wunderground v.1.15,2013-05-26 01:19:00,
2013-05-25 18:24:00,63.1,38.4,29.91,NNE,14,3.0,4.0,40,0.00,,,0.00,146,Wunderground v.1.15,2013-05-26 01:24:00,
2013-05-25 18:29:00,62.9,38.2,29.91,North,355,2.0,2.0,40,0.00,,,0.00,100,Wunderground v.1.15,2013-05-26 01:29:00,
2013-05-25 18:39:00,62.6,37.9,29.91,NE,38,2.0,3.0,40,0.00,,,0.00,53,Wunderground v.1.15,2013-05-26 01:39:00,
2013-05-25 18:44:00,62.4,38.4,29.91,NNE,25,3.0,4.0,41,0.00,,,0.00,60,Wunderground v.1.15,2013-05-26 01:44:00,
2013-05-25 18:49:00,62.4,38.4,29.90,NNE,20,3.0,6.0,41,0.00,,,0.00,63,Wunderground v.1.15,2013-05-26 01:49:00,
2013-05-25 18:54:00,62.1,38.7,29.90,NNE,24,4.0,6.0,42,0.00,,,0.00,49,Wunderground v.1.15,2013-05-26 01:54:00,
2013-05-25 18:59:00,61.8,39.1,29.90,NNE,21,4.0,4.0,43,0.00,,,0.00,51,Wunderground v.1.15,2013-05-26 01:59:00,
2013-05-25 19:04:00,61.6,38.3,29.90,NNE,23,3.0,4.0,42,0.00,,,0.00,58,Wunderground v.1.15,2013-05-26 02:04:00,
2013-05-25 19:09:00,61.7,38.4,29.90,NNE,32,2.0,2.0,42,0.00,,,0.00,46,Wunderground v.1.15,2013-05-26 02:09:00,
2013-05-25 19:14:00,61.6,37.7,29.90,NNE,24,1.0,5.0,41,0.00,,,0.00,26,Wunderground v.1.15,2013-05-26 02:14:00,
2013-05-25 19:19:00,61.4,38.1,29.90,NNE,23,1.0,1.0,42,0.00,,,0.00,18,Wunderground v.1.15,2013-05-26 02:19:00,
2013-05-25 19:24:00,61.4,38.1,29.91,North,355,1.0,2.0,42,0.00,,,0.00,14,Wunderground v.1.15,2013-05-26 02:24:00,
2013-05-25 19:29:00,61.3,38.6,29.91,North,5,2.0,5.0,43,0.00,,,0.00,12,Wunderground v.1.15,2013-05-26 02:29:00,
2013-05-25 19:39:00,60.9,39.4,29.91,NNE,30,2.0,2.0,45,0.00,,,0.00,7,Wunderground v.1.15,2013-05-26 02:39:00,
2013-05-25 19:44:00,60.8,39.9,29.92,NNE,24,1.0,2.0,46,0.00,,,0.00,5,Wunderground v.1.15,2013-05-26 02:44:00,
2013-05-25 19:49:00,60.5,41.2,29.92,North,349,0.0,0.0,49,0.00,,,0.00,5,Wunderground v.1.15,2013-05-26 02:49:00,
2013-05-25 19:54:00,59.6,42.4,29.91,North,350,1.0,3.0,53,0.00,,,0.00,7,Wunderground v.1.15,2013-05-26 02:54:00,
2013-05-25 20:00:00,58.3,42.2,29.91,North,360,2.0,2.0,55,0.00,,,0.00,9,Wunderground v.1.15,2013-05-26 03:00:00,
2013-05-25 20:09:00,56.5,43.6,29.92,NW,322,1.0,1.0,62,0.00,,,0.00,9,Wunderground v.1.15,2013-05-26 03:09:00,
2013-05-25 20:14:00,56.4,44.4,29.92,West,265,1.0,5.0,64,0.00,,,0.00,5,Wunderground v.1.15,2013-05-26 03:14:00,
2013-05-25 20:19:00,55.8,45.0,29.92,WSW,245,2.0,5.0,67,0.00,,,0.00,0,Wunderground v.1.15,2013-05-26 03:19:00,
2013-05-25 20:24:00,55.1,45.1,29.92,WSW,254,4.0,5.0,69,0.00,,,0.00,0,Wunderground v.1.15,2013-05-26 03:24:00,
2013-05-25 20:29:00,54.8,45.2,29.92,West,264,5.0,5.0,70,0.00,,,0.00,0,Wunderground v.1.15,2013-05-26 03:29:00,
2013-05-25 20:34:00,54.5,45.3,29.92,WNW,289,4.0,5.0,71,0.00,,,0.00,0,Wunderground v.1.15,2013-05-26 03:34:00,
2013-05-25 20:44:00,54.1,45.6,29.92,WNW,284,6.0,6.0,73,0.00,,,0.01,0,Wunderground v.1.15,2013-05-26 03:44:00,
2013-05-25 20:49:00,53.5,45.8,29.92,West,274,5.0,5.0,75,0.00,,,0.01,0,Wunderground v.1.15,2013-05-26 03:49:00,
2013-05-25 20:54:00,53.0,46.0,29.93,West,259,5.0,6.0,77,0.00,,,0.01,0,Wunderground v.1.15,2013-05-26 03:54:00,
2013-05-25 21:00:00,52.7,45.7,29.93,West,259,4.0,4.0,77,0.00,,,0.01,0,Wunderground v.1.15,2013-05-26 04:00:00,
2013-05-25 21:04:00,52.6,45.9,29.94,West,269,4.0,5.0,78,0.00,,,0.01,0,Wunderground v.1.15,2013-05-26 04:04:00,
2013-05-25 21:09:00,52.5,45.8,29.94,West,263,3.0,3.0,78,0.00,,,0.01,0,Wunderground v.1.15,2013-05-26 04:09:00,
2013-05-25 21:14:00,52.4,45.7,29.94,West,266,2.0,3.0,78,0.00,,,0.01,0,Wunderground v.1.15,2013-05-26 04:14:00,
2013-05-25 21:19:00,52.4,46.4,29.94,West,271,1.0,1.0,80,0.00,,,0.02,0,Wunderground v.1.15,2013-05-26 04:19:00,
2013-05-25 21:24:00,52.2,46.2,29.95,West,270,1.0,1.0,80,0.00,,,0.02,0,Wunderground v.1.15,2013-05-26 04:24:00,
2013-05-25 21:29:00,51.9,45.9,29.95,WNW,296,2.0,4.0,80,0.00,,,0.02,0,Wunderground v.1.15,2013-05-26 04:29:00,
2013-05-25 21:34:00,51.7,46.1,29.94,NW,304,3.0,4.0,81,0.00,,,0.02,0,Wunderground v.1.15,2013-05-26 04:34:00,
2013-05-25 21:39:00,51.2,45.9,29.94,NW,323,2.0,4.0,82,0.00,,,0.02,0,Wunderground v.1.15,2013-05-26 04:39:00,
2013-05-25 21:44:00,50.8,45.8,29.93,NNW,332,2.0,8.0,83,0.00,,,0.02,0,Wunderground v.1.15,2013-05-26 04:44:00,
2013-05-25 21:49:00,50.5,45.5,29.93,NNW,344,5.0,5.0,83,0.00,,,0.03,0,Wunderground v.1.15,2013-05-26 04:49:00,
2013-05-25 21:54:00,50.4,45.4,29.93,NW,323,5.0,6.0,83,0.00,,,0.03,0,Wunderground v.1.15,2013-05-26 04:54:00,
2013-05-25 21:59:00,50.4,45.4,29.93,North,350,5.0,6.0,83,0.00,,,0.03,0,Wunderground v.1.15,2013-05-26 04:59:00,
2013-05-25 22:09:00,50.4,45.7,29.93,NNW,332,2.0,2.0,84,0.00,,,0.03,0,Wunderground v.1.15,2013-05-26 05:09:00,
2013-05-25 22:14:00,50.4,45.7,29.93,NNW,344,0.0,2.0,84,0.00,,,0.03,0,Wunderground v.1.15,2013-05-26 05:14:00,
2013-05-25 22:24:00,50.0,46.0,29.93,NW,322,0.0,2.0,86,0.00,,,0.03,0,Wunderground v.1.15,2013-05-26 05:24:00,
2013-05-25 22:29:00,49.9,45.6,29.93,WNW,282,1.0,1.0,85,0.00,,,0.04,0,Wunderground v.1.15,2013-05-26 05:29:00,
2013-05-25 22:34:00,49.9,45.6,29.92,WNW,282,1.0,1.0,85,0.00,,,0.04,0,Wunderground v.1.15,2013-05-26 05:34:00,
2013-05-25 22:39:00,49.9,45.6,29.92,WNW,282,0.0,0.0,85,0.00,,,0.04,0,Wunderground v.1.15,2013-05-26 05:39:00,
2013-05-25 22:44:00,50.0,46.0,29.93,WNW,282,0.0,0.0,86,0.00,,,0.04,0,Wunderground v.1.15,2013-05-26 05:44:00,
2013-05-25 22:54:00,49.9,45.9,29.92,WNW,283,0.0,0.0,86,0.00,,,0.04,0,Wunderground v.1.15,2013-05-26 05:54:00,
2013-05-25 22:59:00,50.0,45.7,29.92,WNW,284,0.0,0.0,85,0.00,,,0.04,0,Wunderground v.1.15,2013-05-26 05:59:00,
2013-05-25 23:09:00,50.1,45.5,29.93,NNE,26,0.0,0.0,84,0.00,,,0.04,0,Wunderground v.1.15,2013-05-26 06:09:00,
2013-05-25 23:14:00,50.1,44.8,29.93,NNE,13,0.0,0.0,82,0.00,,,0.04,0,Wunderground v.1.15,2013-05-26 06:14:00,
2013-05-25 23:19:00,49.9,44.9,29.93,North,5,0.0,0.0,83,0.00,,,0.04,0,Wunderground v.1.15,2013-05-26 06:19:00,
2013-05-25 23:29:00,49.8,45.2,29.93,North,5,0.0,0.0,84,0.00,,,0.04,0,Wunderground v.1.15,2013-05-26 06:29:00,
2013-05-25 23:34:00,49.8,45.2,29.92,North,5,0.0,0.0,84,0.00,,,0.04,0,Wunderground v.1.15,2013-05-26 06:34:00,
2013-05-25 23:39:00,49.8,45.5,29.92,North,10,0.0,0.0,85,0.00,,,0.04,0,Wunderground v.1.15,2013-05-26 06:39:00,
2013-05-25 23:44:00,49.7,45.4,29.93,North,10,0.0,0.0,85,0.00,,,0.04,0,Wunderground v.1.15,2013-05-26 06:44:00,
2013-05-25 23:49:00,49.6,45.3,29.92,North,10,0.0,0.0,85,0.00,,,0.04,0,Wunderground v.1.15,2013-05-26 06:49:00,
2013-05-25 23:54:00,49.6,45.3,29.92,North,10,0.0,0.0,85,0.00,,,0.04,0,Wunderground v.1.15,2013-05-26 06:54:00,